Time;durP1;ratioP1;P1;durP2;ratioP2;P2;SDS_P1;SDS_P2;PMS_P1;PMS_P2;Temp;Humidity;BMP_temperature;BMP_pressure;BME280_temperature;BME280_humidity;BME280_pressure;Samples;Min_cycle;Max_cycle;Signal;HPM_P1;HPM_P2
2022/03/27 00:01:27;;;;;;;40.03;19.55;;;;;;;9.03;47.66;100772.16;5089754;28;20058;-75
2022/03/27 00:03:52;;;;;;;48.72;21.25;;;;;;;9.10;47.54;100778.59;5090198;28;20062;-76
2022/03/27 00:06:18;;;;;;;45.60;21.15;;;;;;;9.21;47.23;100770.63;5089403;28;20035;-76
2022/03/27 00:08:43;;;;;;;39.47;19.33;;;;;;;9.13;47.30;100765.13;5089241;28;20234;-74
2022/03/27 00:11:24;;;;;;;54.47;23.95;;;;;;;9.21;46.98;100773.25;5091207;28;20100;-76
2022/03/27 00:13:50;;;;;;;106.45;38.75;;;;;;;9.10;47.79;100771.53;5082842;28;20037;-76
2022/03/27 00:16:16;;;;;;;128.98;44.22;;;;;;;8.78;48.30;100773.34;5082193;28;20031;-74
2022/03/27 00:18:41;;;;;;;55.67;24.10;;;;;;;8.40;49.75;100771.16;5087837;28;20239;-76
2022/03/27 00:21:08;;;;;;;66.22;26.55;;;;;;;8.32;50.62;100766.44;5083635;28;20235;-75
2022/03/27 00:23:34;;;;;;;63.45;26.40;;;;;;;8.49;49.74;100767.78;5095489;28;20273;-74
2022/03/27 00:25:59;;;;;;;52.38;24.48;;;;;;;8.67;48.96;100766.28;5098229;28;20090;-74
2022/03/27 00:28:25;;;;;;;62.97;25.85;;;;;;;8.70;48.78;100752.00;5083887;28;20029;-75
2022/03/27 00:30:51;;;;;;;70.53;25.60;;;;;;;8.86;48.47;100765.63;5090269;28;20025;-76
2022/03/27 00:33:18;;;;;;;65.18;24.30;;;;;;;8.77;48.67;100774.31;5082499;28;20028;-76
2022/03/27 00:35:44;;;;;;;61.45;24.75;;;;;;;8.74;48.96;100770.09;5082557;28;20210;-74
2022/03/27 00:38:10;;;;;;;55.40;23.98;;;;;;;8.68;48.93;100782.97;5086328;28;20043;-74
2022/03/27 00:40:35;;;;;;;66.28;25.13;;;;;;;8.57;49.23;100779.41;5086549;28;20301;-76
2022/03/27 00:43:01;;;;;;;56.03;22.98;;;;;;;8.66;49.33;100766.41;5088016;28;20306;-75
2022/03/27 00:45:27;;;;;;;45.40;21.02;;;;;;;8.56;49.07;100764.53;5087184;28;20052;-74
2022/03/27 00:47:53;;;;;;;43.58;21.25;;;;;;;8.30;48.66;100763.91;5086576;28;20037;-74
2022/03/27 00:50:19;;;;;;;49.80;22.73;;;;;;;8.11;50.25;100761.06;5086368;28;20072;-74
2022/03/27 00:52:44;;;;;;;106.13;37.65;;;;;;;8.03;50.34;100750.28;5090632;28;20219;-76
2022/03/27 00:55:10;;;;;;;134.90;44.80;;;;;;;8.17;50.03;100765.84;5087661;28;20036;-75
2022/03/27 00:57:35;;;;;;;37.30;19.00;;;;;;;7.70;51.07;100751.13;5083297;28;20021;-75
2022/03/27 01:00:00;;;;;;;48.00;18.25;;;;;;;7.84;51.49;100761.44;5086585;28;20040;-75
2022/03/27 01:02:26;;;;;;;51.13;21.15;;;;;;;8.07;50.64;100751.72;5085375;28;20040;-76
2022/03/27 01:04:55;;;;;;;41.03;18.35;;;;;;;8.18;50.83;100750.88;5087408;28;20046;-76
2022/03/27 01:07:21;;;;;;;44.05;17.70;;;;;;;8.29;49.92;100745.56;5089624;28;20115;-74
2022/03/27 01:09:47;;;;;;;41.15;16.55;;;;;;;8.08;50.13;100737.56;5084653;28;20025;-76
2022/03/27 01:12:20;;;;;;;39.80;16.63;;;;;;;8.34;50.07;100750.53;5083421;28;20036;-76
2022/03/27 01:14:47;;;;;;;48.80;18.17;;;;;;;8.40;49.66;100744.78;5088035;28;20066;-76
2022/03/27 01:17:21;;;;;;;43.03;15.07;;;;;;;8.51;49.20;100748.22;5089583;28;20040;-74
2022/03/27 01:19:51;;;;;;;41.22;16.13;;;;;;;8.32;48.65;100729.50;5085508;28;20033;-74
2022/03/27 01:22:18;;;;;;;33.10;15.48;;;;;;;8.31;49.13;100736.56;5082835;28;20055;-75
2022/03/27 01:24:44;;;;;;;33.55;14.77;;;;;;;8.43;48.65;100734.81;5089174;28;20225;-76
2022/03/27 01:27:10;;;;;;;37.45;14.07;;;;;;;8.22;49.20;100707.44;5088020;28;20036;-75
2022/03/27 01:29:36;;;;;;;32.92;14.07;;;;;;;8.49;48.47;100722.91;5084819;28;20338;-77
2022/03/27 01:32:03;;;;;;;31.20;13.00;;;;;;;8.63;47.99;100733.19;5081525;28;20368;-74
2022/03/27 01:34:29;;;;;;;30.05;13.60;;;;;;;8.85;47.83;100741.00;5081680;28;20050;-74
2022/03/27 01:36:55;;;;;;;31.02;13.25;;;;;;;8.81;47.36;100731.66;5094842;28;20032;-74
2022/03/27 01:39:20;;;;;;;36.95;13.32;;;;;;;8.87;47.29;100732.97;5101607;28;20332;-76
2022/03/27 01:41:46;;;;;;;28.52;12.38;;;;;;;8.73;47.39;100735.91;5092822;28;20035;-76
2022/03/27 01:44:17;;;;;;;29.95;12.70;;;;;;;8.68;47.96;100730.16;5085912;28;20393;-74
2022/03/27 01:46:43;;;;;;;28.75;11.00;;;;;;;8.65;47.63;100723.34;5084144;28;20028;-76
2022/03/27 01:49:12;;;;;;;24.15;12.85;;;;;;;8.62;47.79;100729.69;5087711;28;20299;-76
2022/03/27 01:51:40;;;;;;;28.48;11.40;;;;;;;8.53;48.21;100732.25;5090741;28;20072;-76
2022/03/27 01:54:06;;;;;;;27.05;11.85;;;;;;;8.83;47.54;100728.91;5084705;28;20230;-76
2022/03/27 01:56:32;;;;;;;25.88;12.43;;;;;;;8.78;47.50;100721.34;5086451;28;20063;-77
2022/03/27 01:58:59;;;;;;;25.83;11.15;;;;;;;8.82;47.35;100717.50;5084529;28;20046;-75
2022/03/27 02:01:24;;;;;;;30.58;12.63;;;;;;;8.96;47.01;100719.84;5091705;28;20036;-74
2022/03/27 02:03:50;;;;;;;36.78;13.63;;;;;;;9.01;46.52;100730.00;5083931;28;20043;-76
2022/03/27 02:06:16;;;;;;;29.27;12.38;;;;;;;8.91;47.10;100715.91;5087811;28;20040;-74
2022/03/27 02:08:43;;;;;;;29.05;11.15;;;;;;;8.90;47.53;100728.25;5087033;28;20024;-76
2022/03/27 02:11:09;;;;;;;25.15;11.02;;;;;;;8.85;47.35;100719.06;5086590;28;20060;-76
2022/03/27 02:13:36;;;;;;;35.85;15.20;;;;;;;8.84;48.15;100720.84;5087208;28;20047;-74
2022/03/27 02:16:03;;;;;;;38.38;17.48;;;;;;;8.97;47.62;100720.66;5084381;28;20046;-76
2022/03/27 02:18:30;;;;;;;41.15;17.48;;;;;;;8.88;47.61;100719.63;5088226;28;20037;-76
2022/03/27 02:20:56;;;;;;;36.83;16.48;;;;;;;8.92;47.55;100725.50;5083451;28;20032;-76
2022/03/27 02:23:23;;;;;;;35.60;16.90;;;;;;;8.86;47.61;100726.00;5087890;28;20048;-75
2022/03/27 02:25:50;;;;;;;37.75;17.55;;;;;;;8.78;47.87;100720.53;5084626;28;20255;-77
2022/03/27 02:28:16;;;;;;;42.65;16.73;;;;;;;8.69;48.09;100718.63;5086470;28;20307;-75
2022/03/27 02:30:42;;;;;;;35.08;14.45;;;;;;;8.64;48.54;100719.84;5118507;28;20058;-74
2022/03/27 02:33:08;;;;;;;28.80;14.18;;;;;;;8.60;48.19;100731.63;5089641;28;20032;-74
2022/03/27 02:35:34;;;;;;;27.70;11.43;;;;;;;8.69;47.96;100718.63;5100610;28;20032;-74
2022/03/27 02:38:00;;;;;;;35.13;12.65;;;;;;;8.62;48.53;100732.34;5095814;28;20040;-76
2022/03/27 02:40:26;;;;;;;26.52;12.32;;;;;;;8.56;48.46;100732.84;5080664;28;20040;-76
2022/03/27 02:42:52;;;;;;;28.45;11.05;;;;;;;8.58;47.90;100730.06;5081449;28;20028;-74
2022/03/27 02:45:17;;;;;;;29.35;10.95;;;;;;;8.62;47.97;100721.78;5081462;28;20070;-76
2022/03/27 02:47:43;;;;;;;29.33;10.82;;;;;;;8.72;47.46;100734.22;5089720;28;20020;-75
2022/03/27 02:50:08;;;;;;;27.02;10.75;;;;;;;8.89;47.47;100742.44;5087021;28;20036;-76
2022/03/27 02:52:34;;;;;;;22.13;9.82;;;;;;;8.79;47.58;100748.59;5085514;28;20033;-76
2022/03/27 02:54:59;;;;;;;25.30;10.98;;;;;;;8.77;47.76;100742.63;5089513;28;20039;-75
2022/03/27 02:57:25;;;;;;;26.38;10.27;;;;;;;8.64;47.10;100721.66;5088005;28;20048;-75
2022/03/27 02:59:52;;;;;;;26.52;9.93;;;;;;;8.55;47.65;100739.09;5089747;28;20263;-75
2022/03/27 03:02:19;;;;;;;28.98;10.45;;;;;;;8.48;48.55;100745.81;5087851;28;20044;-76
2022/03/27 03:04:44;;;;;;;18.83;9.38;;;;;;;8.29;49.03;100742.94;5087924;28;20025;-74
2022/03/27 03:07:10;;;;;;;27.40;10.40;;;;;;;8.28;49.00;100736.81;5090347;28;20044;-74
2022/03/27 03:09:36;;;;;;;28.50;10.88;;;;;;;8.32;48.88;100750.59;5093726;28;20387;-75
2022/03/27 03:12:01;;;;;;;31.48;11.13;;;;;;;8.27;48.99;100752.78;5093047;28;20314;-76
2022/03/27 03:14:27;;;;;;;31.63;13.20;;;;;;;8.28;48.96;100752.66;5089363;28;20070;-76
2022/03/27 03:16:53;;;;;;;30.67;11.45;;;;;;;8.34;49.33;100745.25;5085115;28;20330;-74
2022/03/27 03:19:19;;;;;;;28.02;10.65;;;;;;;8.23;48.94;100749.53;5089360;28;20052;-76
2022/03/27 03:21:44;;;;;;;24.60;10.07;;;;;;;8.30;49.26;100756.00;5096512;28;20036;-76
2022/03/27 03:24:10;;;;;;;19.60;10.00;;;;;;;8.07;49.73;100745.59;5091625;28;20035;-76
2022/03/27 03:26:35;;;;;;;24.40;9.85;;;;;;;7.95;49.97;100761.44;5089097;28;20051;-77
2022/03/27 03:29:01;;;;;;;25.60;10.57;;;;;;;7.89;50.23;100755.81;5084801;28;20042;-75
2022/03/27 03:31:26;;;;;;;25.42;9.68;;;;;;;7.86;50.38;100758.69;5089459;28;20063;-76
2022/03/27 03:33:52;;;;;;;18.50;9.07;;;;;;;7.72;51.13;100754.47;5088435;28;20538;-76
2022/03/27 03:36:17;;;;;;;22.25;9.63;;;;;;;7.99;50.39;100757.59;5088671;28;20032;-74
2022/03/27 03:38:43;;;;;;;27.08;8.80;;;;;;;7.82;50.54;100757.25;5086313;28;20082;-74
2022/03/27 03:41:09;;;;;;;21.60;9.50;;;;;;;7.91;50.30;100762.63;5083848;28;20096;-74
2022/03/27 03:43:36;;;;;;;27.83;9.75;;;;;;;7.86;50.45;100762.16;5083844;28;20322;-74
2022/03/27 03:46:05;;;;;;;22.65;9.98;;;;;;;7.99;50.24;100762.88;5084785;28;20112;-74
2022/03/27 03:48:32;;;;;;;39.17;12.65;;;;;;;7.93;49.98;100763.34;5083878;28;20103;-74
2022/03/27 03:50:58;;;;;;;33.60;11.45;;;;;;;8.00;50.00;100766.34;5086948;28;20044;-76
2022/03/27 03:53:24;;;;;;;22.30;10.38;;;;;;;7.99;50.04;100754.13;5088406;28;20038;-76
2022/03/27 03:55:49;;;;;;;26.90;9.68;;;;;;;8.18;49.85;100758.78;5087365;28;20032;-76
2022/03/27 03:58:15;;;;;;;21.17;8.85;;;;;;;8.04;50.16;100743.22;5080869;28;20338;-76
2022/03/27 04:00:42;;;;;;;20.10;8.90;;;;;;;8.08;49.75;100757.84;5083045;28;20099;-75
2022/03/27 04:03:09;;;;;;;25.95;8.75;;;;;;;8.04;49.94;100762.50;5088234;28;20234;-76
2022/03/27 04:05:35;;;;;;;23.02;9.68;;;;;;;7.95;50.61;100753.53;5086635;28;20043;-77
2022/03/27 04:08:00;;;;;;;23.42;9.38;;;;;;;7.84;50.37;100772.00;5083207;28;20222;-75
2022/03/27 04:10:27;;;;;;;26.15;8.98;;;;;;;7.90;49.85;100779.41;5082852;28;20059;-77
2022/03/27 04:12:52;;;;;;;30.10;8.88;;;;;;;8.09;49.53;100775.34;5093827;28;20226;-77
2022/03/27 04:15:18;;;;;;;20.38;9.35;;;;;;;8.17;49.56;100767.66;5093701;28;20040;-76
2022/03/27 04:17:44;;;;;;;19.48;9.10;;;;;;;8.24;49.53;100772.31;5088429;28;20095;-74
2022/03/27 04:20:12;;;;;;;19.92;9.82;;;;;;;8.18;49.64;100786.00;5088645;28;20055;-77
2022/03/27 04:22:42;;;;;;;21.60;9.52;;;;;;;8.08;49.72;100786.84;5092677;28;20024;-77
2022/03/27 04:25:08;;;;;;;27.67;9.82;;;;;;;8.07;49.86;100791.28;5084260;28;20137;-74
2022/03/27 04:27:34;;;;;;;21.20;8.48;;;;;;;7.98;49.24;100782.28;5088969;28;20082;-77
2022/03/27 04:30:03;;;;;;;24.02;9.10;;;;;;;7.95;49.91;100794.88;5082200;28;20237;-77
2022/03/27 04:32:28;;;;;;;27.55;9.07;;;;;;;7.86;49.74;100777.97;5081418;28;20074;-74
2022/03/27 04:34:54;;;;;;;27.23;8.57;;;;;;;7.74;49.31;100760.47;5086145;28;20316;-77
2022/03/27 04:37:19;;;;;;;28.27;8.63;;;;;;;7.81;49.83;100781.94;5086355;28;20043;-77
2022/03/27 04:39:45;;;;;;;21.92;7.93;;;;;;;7.94;49.88;100803.75;5088383;28;20048;-77
2022/03/27 04:42:10;;;;;;;18.33;9.30;;;;;;;8.12;49.45;100791.75;5085382;28;20218;-74
2022/03/27 04:44:36;;;;;;;27.10;8.88;;;;;;;8.11;49.50;100798.00;5086739;28;20039;-74
2022/03/27 04:47:02;;;;;;;20.73;7.90;;;;;;;8.01;50.08;100804.94;5084001;28;20072;-74
2022/03/27 04:49:27;;;;;;;19.13;8.02;;;;;;;8.24;49.78;100813.69;5090651;28;20056;-77
2022/03/27 04:51:53;;;;;;;27.52;8.80;;;;;;;8.32;49.48;100811.28;5120462;27;20042;-77
2022/03/27 04:54:18;;;;;;;24.20;7.95;;;;;;;8.36;48.86;100804.88;5084001;28;20028;-77
2022/03/27 04:56:44;;;;;;;17.77;7.80;;;;;;;8.37;49.09;100818.91;5090620;28;20024;-74
2022/03/27 04:59:10;;;;;;;24.42;8.85;;;;;;;8.48;48.58;100818.91;5090098;28;20051;-76
2022/03/27 05:01:36;;;;;;;21.08;8.45;;;;;;;8.44;49.26;100806.91;5085193;28;20064;-76
2022/03/27 05:04:02;;;;;;;23.50;8.38;;;;;;;8.50;49.28;100816.97;5082047;28;20041;-76
2022/03/27 05:06:29;;;;;;;24.60;8.50;;;;;;;8.78;48.48;100816.44;5084354;28;20317;-74
2022/03/27 05:08:58;;;;;;;23.52;8.82;;;;;;;8.77;48.39;100825.31;5086582;28;20091;-76
2022/03/27 05:11:25;;;;;;;29.42;9.77;;;;;;;8.66;48.38;100798.94;5085306;28;20246;-74
2022/03/27 05:13:50;;;;;;;28.33;10.65;;;;;;;8.79;48.46;100833.94;5086155;28;20073;-75
2022/03/27 05:16:15;;;;;;;33.00;12.20;;;;;;;8.96;48.51;100827.28;5081988;28;20032;-74
2022/03/27 05:18:41;;;;;;;43.95;12.07;;;;;;;9.13;47.67;100826.75;5081073;28;20107;-76
2022/03/27 05:21:06;;;;;;;24.92;10.02;;;;;;;9.10;47.98;100821.72;5086123;28;20090;-76
2022/03/27 05:23:32;;;;;;;25.65;9.57;;;;;;;9.22;47.62;100827.78;5098549;28;20039;-77
2022/03/27 05:25:57;;;;;;;19.85;9.82;;;;;;;9.23;48.18;100824.19;5100511;28;20081;-77
2022/03/27 05:28:23;;;;;;;26.55;9.45;;;;;;;9.41;47.90;100825.34;5087320;28;20103;-73
2022/03/27 05:30:48;;;;;;;24.92;10.20;;;;;;;9.51;47.88;100822.75;5086467;28;20047;-74
2022/03/27 05:33:14;;;;;;;33.53;10.32;;;;;;;10.00;46.37;100822.06;5084845;28;20244;-74
2022/03/27 05:35:41;;;;;;;25.90;10.00;;;;;;;10.20;46.05;100813.25;5089218;28;20051;-72
2022/03/27 05:38:06;;;;;;;21.17;9.50;;;;;;;10.52;45.00;100813.13;5089161;28;20036;-72
2022/03/27 05:40:32;;;;;;;26.00;10.60;;;;;;;10.74;43.63;100796.16;5084766;28;20063;-74
2022/03/27 05:42:58;;;;;;;22.75;9.25;;;;;;;11.07;43.91;100821.41;5086620;28;20027;-72
2022/03/27 05:45:23;;;;;;;26.20;11.40;;;;;;;11.26;43.45;100825.03;5085449;28;20357;-76
2022/03/27 05:47:49;;;;;;;23.88;10.55;;;;;;;11.48;43.31;100830.09;5088534;28;20065;-74
2022/03/27 05:50:18;;;;;;;22.55;8.30;;;;;;;11.63;42.62;100825.19;5086519;28;20056;-74
2022/03/27 05:52:44;;;;;;;24.90;9.57;;;;;;;12.00;41.54;100823.44;5087464;28;20029;-74
2022/03/27 05:55:12;;;;;;;15.25;8.23;;;;;;;12.20;41.50;100832.16;5085375;28;20081;-77
2022/03/27 05:57:38;;;;;;;23.40;8.98;;;;;;;12.43;41.73;100827.31;5086975;28;20042;-74
2022/03/27 06:00:05;;;;;;;23.40;10.07;;;;;;;12.62;40.79;100829.88;5083229;28;20035;-74
2022/03/27 06:02:31;;;;;;;20.17;9.52;;;;;;;12.56;40.40;100787.13;5084493;28;20047;-77
2022/03/27 06:04:56;;;;;;;21.90;8.52;;;;;;;13.17;39.79;100818.34;5088799;28;20203;-74
2022/03/27 06:07:22;;;;;;;22.55;8.15;;;;;;;13.22;38.91;100819.56;5086506;28;20024;-75
2022/03/27 06:09:48;;;;;;;15.50;6.68;;;;;;;13.69;38.12;100832.59;5088002;28;20027;-72
2022/03/27 06:12:14;;;;;;;22.50;7.45;;;;;;;13.93;37.54;100834.56;5082632;28;20028;-72
2022/03/27 06:14:39;;;;;;;20.02;7.93;;;;;;;13.92;37.15;100827.59;5095609;28;20031;-74
2022/03/27 06:17:05;;;;;;;26.20;7.72;;;;;;;14.51;36.37;100829.41;5100917;28;20405;-76
2022/03/27 06:19:30;;;;;;;18.77;8.02;;;;;;;14.66;36.57;100825.16;5090119;28;20036;-73
2022/03/27 06:21:59;;;;;;;25.65;8.15;;;;;;;14.93;35.81;100828.53;5096227;28;20237;-73
2022/03/27 06:24:25;;;;;;;23.80;8.75;;;;;;;15.25;35.17;100846.44;5089994;28;20040;-75
2022/03/27 06:26:51;;;;;;;21.77;7.28;;;;;;;15.73;34.32;100834.13;5092419;28;20044;-74
2022/03/27 06:29:17;;;;;;;20.48;7.38;;;;;;;16.01;33.50;100842.59;5088807;28;20035;-73
2022/03/27 06:31:43;;;;;;;25.13;7.40;;;;;;;16.16;33.70;100840.88;5101452;28;20032;-75
2022/03/27 06:34:09;;;;;;;23.00;7.88;;;;;;;16.28;33.27;100835.00;5107699;28;20051;-76
2022/03/27 06:36:34;;;;;;;18.80;7.05;;;;;;;16.76;31.22;100830.50;5095370;28;20044;-73
2022/03/27 06:39:01;;;;;;;30.02;7.75;;;;;;;16.56;30.78;100826.53;5097236;28;20051;-72
2022/03/27 06:41:26;;;;;;;28.90;7.45;;;;;;;16.67;29.71;100822.69;5089944;28;20028;-75
2022/03/27 06:43:52;;;;;;;32.95;7.78;;;;;;;16.50;29.80;100829.91;5091167;28;20086;-72
2022/03/27 06:46:17;;;;;;;29.35;7.03;;;;;;;16.64;29.76;100812.28;5092349;28;20140;-74
2022/03/27 06:48:44;;;;;;;26.05;8.23;;;;;;;17.02;29.79;100830.16;5093347;28;20083;-75
2022/03/27 06:51:10;;;;;;;35.35;7.72;;;;;;;16.95;28.84;100823.03;5089981;28;20353;-72
2022/03/27 06:53:36;;;;;;;20.90;6.85;;;;;;;17.26;28.43;100841.72;5092475;28;20027;-75
2022/03/27 06:56:02;;;;;;;30.15;7.65;;;;;;;17.41;28.64;100831.88;5091015;28;20032;-75
2022/03/27 06:58:27;;;;;;;19.55;7.10;;;;;;;17.47;27.87;100829.31;5089604;28;20190;-74
2022/03/27 07:03:36;;;;;;;18.67;7.15;;;;;;;17.63;27.78;100822.16;5087050;28;20261;-73
2022/03/27 07:06:02;;;;;;;28.02;7.43;;;;;;;17.85;27.34;100813.28;5087287;28;20040;-73
2022/03/27 07:08:27;;;;;;;20.45;6.63;;;;;;;17.90;27.52;100831.50;5090001;28;20093;-76
2022/03/27 07:10:53;;;;;;;30.55;7.07;;;;;;;17.65;27.30;100822.81;5091261;28;20119;-78
2022/03/27 07:13:20;;;;;;;19.15;7.68;;;;;;;17.59;27.36;100835.06;5092618;28;20029;-75
2022/03/27 07:15:47;;;;;;;26.90;7.28;;;;;;;17.67;27.76;100840.38;5093585;28;20032;-74
2022/03/27 07:18:14;;;;;;;16.75;6.57;;;;;;;17.91;27.53;100820.59;5091962;28;20033;-74
2022/03/27 07:20:41;;;;;;;21.65;8.13;;;;;;;18.08;27.54;100837.34;5090826;28;20059;-74
2022/03/27 07:23:09;;;;;;;17.90;7.47;;;;;;;18.17;27.32;100841.59;5089044;28;20100;-77
2022/03/27 07:25:39;;;;;;;17.70;6.78;;;;;;;18.36;27.16;100834.84;5089414;28;20074;-77
2022/03/27 07:28:06;;;;;;;13.05;6.72;;;;;;;18.53;26.66;100828.25;5093648;28;20024;-74
2022/03/27 07:30:32;;;;;;;19.23;6.25;;;;;;;18.67;26.28;100830.09;5093379;28;20043;-77
2022/03/27 07:32:58;;;;;;;21.90;8.13;;;;;;;18.54;26.84;100829.06;5104170;28;20039;-77
2022/03/27 07:35:30;;;;;;;18.13;6.85;;;;;;;18.71;26.60;100819.81;5095722;28;20032;-74
2022/03/27 07:37:56;;;;;;;17.52;7.63;;;;;;;19.11;26.51;100832.69;5087158;28;20028;-74
2022/03/27 07:40:21;;;;;;;19.52;6.63;;;;;;;19.25;25.67;100827.44;5088745;28;20031;-74
2022/03/27 07:42:50;;;;;;;16.98;6.93;;;;;;;19.16;25.54;100824.06;5085144;28;20055;-74
2022/03/27 07:45:21;;;;;;;20.65;6.68;;;;;;;19.56;25.79;100827.94;5087102;28;20298;-77
2022/03/27 07:47:48;;;;;;;22.58;6.47;;;;;;;19.55;24.68;100820.91;5094059;28;20051;-77
2022/03/27 07:50:14;;;;;;;22.08;6.38;;;;;;;19.62;25.23;100826.34;5088520;28;20028;-74
2022/03/27 07:52:39;;;;;;;28.58;6.35;;;;;;;19.70;24.74;100824.34;5086457;28;20334;-74
2022/03/27 07:55:07;;;;;;;14.13;6.55;;;;;;;19.84;24.72;100828.00;5089032;28;20353;-74
2022/03/27 07:57:32;;;;;;;19.42;5.90;;;;;;;20.00;23.96;100829.53;5088257;28;20061;-77
2022/03/27 07:59:58;;;;;;;17.02;6.43;;;;;;;20.07;24.05;100815.13;5086772;28;20036;-78
2022/03/27 08:02:23;;;;;;;16.77;6.45;;;;;;;20.02;24.47;100822.94;5087558;28;20358;-78
2022/03/27 08:04:49;;;;;;;29.25;6.85;;;;;;;20.11;24.08;100820.91;5086862;28;20024;-75
2022/03/27 08:07:15;;;;;;;29.98;6.80;;;;;;;20.08;23.34;100802.50;5085010;28;20036;-72
2022/03/27 08:09:40;;;;;;;23.35;6.70;;;;;;;20.47;23.97;100801.88;5085129;28;20074;-72
2022/03/27 08:12:08;;;;;;;20.52;6.45;;;;;;;20.78;23.48;100814.00;5084412;28;20061;-75
2022/03/27 08:14:34;;;;;;;21.42;6.63;;;;;;;20.49;23.26;100810.59;5083410;28;20027;-75
2022/03/27 08:17:00;;;;;;;15.45;5.90;;;;;;;20.42;23.40;100784.69;5084728;28;20230;-76
2022/03/27 08:19:26;;;;;;;29.80;6.63;;;;;;;20.59;23.02;100784.13;5083092;28;20256;-72
2022/03/27 08:21:53;;;;;;;27.77;6.55;;;;;;;20.82;23.35;100786.50;5084665;28;20071;-75
2022/03/27 08:24:19;;;;;;;25.02;7.05;;;;;;;20.92;23.17;100786.94;5084653;28;20035;-75
2022/03/27 08:26:57;;;;;;;28.00;6.90;;;;;;;20.97;22.38;100789.00;5084026;28;20029;-78
2022/03/27 08:29:27;;;;;;;14.38;6.68;;;;;;;21.15;22.22;100786.56;5083415;28;20044;-78
2022/03/27 08:31:53;;;;;;;19.77;6.55;;;;;;;21.47;22.72;100789.50;5084388;28;20052;-72
2022/03/27 08:34:20;;;;;;;21.10;6.80;;;;;;;21.27;22.09;100784.09;5083930;28;20033;-75
2022/03/27 08:36:46;;;;;;;28.35;7.28;;;;;;;21.24;22.20;100774.56;5084308;28;20024;-72
2022/03/27 08:39:11;;;;;;;32.83;7.30;;;;;;;21.17;22.03;100770.19;5084195;28;20044;-72
2022/03/27 08:41:43;;;;;;;20.83;7.88;;;;;;;21.32;21.60;100785.16;5089231;28;20032;-73
2022/03/27 08:44:14;;;;;;;13.77;6.95;;;;;;;21.58;21.67;100770.84;5083787;28;20037;-76
2022/03/27 08:46:41;;;;;;;14.02;6.95;;;;;;;21.62;21.28;100763.16;5086874;28;20039;-73
2022/03/27 08:49:29;;;;;;;31.45;7.78;;;;;;;21.74;20.69;100772.25;5087885;28;20051;-76
2022/03/27 08:52:23;;;;;;;18.25;7.88;;;;;;;21.83;21.10;100768.31;5078038;28;20052;-77
2022/03/27 08:55:06;;;;;;;16.48;6.93;;;;;;;21.84;20.85;100758.34;5102269;28;20329;-73
2022/03/27 08:57:37;;;;;;;19.48;7.22;;;;;;;21.84;20.92;100767.25;5103035;28;20031;-76
2022/03/27 09:00:05;;;;;;;17.67;7.32;;;;;;;21.87;21.26;100757.97;5103088;28;20038;-72
2022/03/27 09:02:30;;;;;;;18.45;7.25;;;;;;;22.13;20.72;100765.16;5102255;28;20040;-72
2022/03/27 09:04:57;;;;;;;17.30;7.60;;;;;;;22.11;20.82;100759.16;5103396;28;20035;-73
2022/03/27 09:07:24;;;;;;;14.50;7.13;;;;;;;22.23;20.54;100758.28;5103192;28;20032;-72
2022/03/27 09:09:51;;;;;;;15.60;6.93;;;;;;;21.89;20.78;100742.41;5101902;28;20110;-73
2022/03/27 09:12:19;;;;;;;20.92;7.35;;;;;;;21.73;21.40;100710.47;5101822;28;20218;-72
2022/03/27 09:14:45;;;;;;;30.00;8.90;;;;;;;21.75;19.89;100706.53;5103085;28;20032;-75
2022/03/27 09:17:10;;;;;;;17.35;7.55;;;;;;;21.96;19.50;100735.13;5103018;28;20043;-73
2022/03/27 09:19:39;;;;;;;13.43;6.82;;;;;;;21.99;19.80;100724.72;5102689;28;20102;-72
2022/03/27 09:22:29;;;;;;;30.50;8.60;;;;;;;22.03;19.78;100714.38;5103053;28;20219;-72
2022/03/27 09:24:58;;;;;;;43.55;10.43;;;;;;;21.86;19.07;100730.16;5090575;28;20032;-74
2022/03/27 09:27:30;;;;;;;20.42;8.15;;;;;;;21.99;19.38;100732.81;5090000;28;20036;-74
2022/03/27 09:30:07;;;;;;;16.52;7.75;;;;;;;22.11;18.92;100707.91;5083310;28;20095;-74
2022/03/27 09:32:38;;;;;;;18.92;7.65;;;;;;;22.10;18.58;100725.13;5083352;28;20192;-75
2022/03/27 09:35:10;;;;;;;21.00;9.15;;;;;;;22.22;19.61;100731.53;5083366;28;20384;-74
2022/03/27 09:37:42;;;;;;;17.15;7.82;;;;;;;22.13;18.35;100727.41;5089294;28;20055;-75
2022/03/27 09:40:10;;;;;;;18.58;8.60;;;;;;;22.12;18.43;100720.34;5084230;28;20064;-75
2022/03/27 09:42:40;;;;;;;22.98;7.57;;;;;;;22.11;18.42;100716.00;5081832;28;20028;-75
2022/03/27 09:45:17;;;;;;;15.05;7.63;;;;;;;21.94;18.08;100718.31;5083387;28;20043;-75
2022/03/27 09:47:45;;;;;;;22.25;7.63;;;;;;;21.94;18.55;100718.31;5081724;28;20036;-75
2022/03/27 09:50:35;;;;;;;20.58;8.35;;;;;;;21.87;17.63;100707.56;5086406;28;20028;-73
2022/03/27 09:53:23;;;;;;;16.67;7.70;;;;;;;21.80;17.75;100716.66;5084880;28;20314;-74
2022/03/27 09:56:00;;;;;;;21.50;8.55;;;;;;;21.75;17.35;100720.00;5101630;28;20040;-74
2022/03/27 09:58:33;;;;;;;22.60;9.48;;;;;;;21.57;17.31;100709.88;5100744;28;20334;-74
2022/03/27 10:01:14;;;;;;;21.52;8.73;;;;;;;21.62;18.33;100715.47;5093734;28;20082;-74
2022/03/27 10:03:57;;;;;;;23.45;7.90;;;;;;;21.83;18.26;100695.50;5082393;28;20032;-75
2022/03/27 10:06:30;;;;;;;17.88;8.20;;;;;;;21.73;17.10;100699.69;5082620;28;20063;-75
2022/03/27 10:08:56;;;;;;;15.37;7.47;;;;;;;21.34;17.25;100704.13;5082942;28;20036;-74
2022/03/27 10:11:22;;;;;;;16.45;7.63;;;;;;;21.49;17.66;100709.28;5082624;28;20063;-74
2022/03/27 10:13:52;;;;;;;26.73;8.52;;;;;;;21.53;17.53;100694.34;5082472;28;20066;-75
2022/03/27 10:16:21;;;;;;;18.58;8.93;;;;;;;21.57;18.15;100693.72;5102407;28;20046;-74
2022/03/27 10:18:47;;;;;;;12.15;7.75;;;;;;;21.61;17.43;100699.50;5102139;28;20090;-75
2022/03/27 10:21:15;;;;;;;15.07;7.45;;;;;;;21.64;18.05;100691.00;5101771;28;20063;-75
2022/03/27 10:23:43;;;;;;;14.48;7.95;;;;;;;21.71;17.36;100677.50;5100424;28;20032;-75
2022/03/27 10:26:09;;;;;;;15.18;7.78;;;;;;;21.52;18.10;100680.03;5102135;28;20040;-75
2022/03/27 10:28:37;;;;;;;21.90;8.10;;;;;;;21.81;18.07;100684.09;5100811;28;20183;-75
2022/03/27 10:31:02;;;;;;;18.20;7.63;;;;;;;21.86;17.40;100683.50;5102240;28;20138;-75
2022/03/27 10:33:29;;;;;;;14.80;7.53;;;;;;;21.85;17.84;100679.97;5101841;28;20229;-75
2022/03/27 10:36:12;;;;;;;22.33;7.88;;;;;;;21.88;18.15;100679.56;5101873;28;20051;-77
2022/03/27 10:38:52;;;;;;;16.20;7.70;;;;;;;21.65;18.61;100674.63;5100523;28;20051;-77
2022/03/27 10:41:26;;;;;;;15.85;8.25;;;;;;;21.82;18.02;100676.84;5100652;28;20035;-75
2022/03/27 10:44:03;;;;;;;16.75;7.75;;;;;;;21.85;17.83;100669.19;5100772;28;20348;-75
2022/03/27 10:46:29;;;;;;;15.55;7.57;;;;;;;21.91;18.71;100678.28;5101789;28;20043;-75
2022/03/27 10:49:14;;;;;;;17.33;7.63;;;;;;;21.93;17.17;100649.25;5101707;28;20032;-76
2022/03/27 10:51:41;;;;;;;20.77;7.80;;;;;;;21.91;17.83;100654.03;5101707;28;20085;-76
2022/03/27 10:54:10;;;;;;;19.70;8.50;;;;;;;21.63;17.17;100665.09;5100475;28;20028;-75
2022/03/27 10:56:42;;;;;;;18.98;8.63;;;;;;;21.45;18.06;100665.75;5100538;28;20055;-75
2022/03/27 10:59:11;;;;;;;13.35;7.53;;;;;;;21.56;17.69;100653.50;5101548;28;20036;-75
2022/03/27 11:01:39;;;;;;;16.05;7.43;;;;;;;21.60;17.18;100655.56;5101416;28;20044;-75
2022/03/27 11:04:08;;;;;;;20.23;7.90;;;;;;;21.77;17.96;100658.63;5101678;28;20028;-75
2022/03/27 11:06:36;;;;;;;18.67;7.55;;;;;;;21.89;17.40;100651.53;5102938;28;20070;-76
2022/03/27 11:09:05;;;;;;;15.98;7.25;;;;;;;21.90;18.09;100657.75;5104201;28;20034;-75
2022/03/27 11:11:39;;;;;;;23.85;7.82;;;;;;;21.92;17.21;100645.72;5105334;28;20036;-75
2022/03/27 11:14:07;;;;;;;17.48;7.50;;;;;;;21.95;17.71;100647.16;5094161;28;20400;-75
2022/03/27 11:16:36;;;;;;;16.30;7.32;;;;;;;21.88;17.48;100652.59;5087636;28;20063;-76
2022/03/27 11:19:02;;;;;;;16.67;7.60;;;;;;;21.84;17.96;100635.16;5088451;28;20028;-76
2022/03/27 11:21:27;;;;;;;21.75;7.95;;;;;;;22.03;18.60;100633.47;5090063;28;20032;-75
2022/03/27 11:23:55;;;;;;;15.40;6.68;;;;;;;22.08;18.11;100627.44;5097958;28;20322;-75